createdAt,value
2022-10-20T00:02:30.554Z,70.10
2022-10-20T00:07:33.970Z,70.10
2022-10-20T00:12:37.776Z,70.00
2022-10-20T00:17:44.708Z,70.00
2022-10-20T00:22:48.173Z,70.00
2022-10-20T00:27:51.498Z,69.90
2022-10-20T00:32:56.148Z,70.90
2022-10-20T00:37:59.442Z,70.00
2022-10-20T00:43:02.758Z,70.00
2022-10-20T00:48:13.500Z,70.00
2022-10-20T00:53:17.710Z,70.20
2022-10-20T00:58:21.412Z,70.40
2022-10-20T01:03:31.470Z,70.70
2022-10-20T01:08:35.034Z,70.70
2022-10-20T01:13:46.371Z,70.70
2022-10-20T01:19:01.971Z,70.80
2022-10-20T01:24:23.794Z,70.70
2022-10-20T01:29:31.472Z,70.60
2022-10-20T01:34:43.247Z,70.70
2022-10-20T01:39:51.960Z,71.40
2022-10-20T01:45:00.413Z,72.20
2022-10-20T01:50:06.992Z,73.10
2022-10-20T01:55:15.011Z,73.70
2022-10-20T02:00:19.802Z,74.20
2022-10-20T02:05:43.892Z,74.40
2022-10-20T02:10:48.890Z,73.80
2022-10-20T02:15:56.611Z,73.40
2022-10-20T02:21:03.832Z,72.60
2022-10-20T02:26:08.784Z,73.10
2022-10-20T02:31:14.162Z,73.50
2022-10-20T02:36:20.004Z,73.10
2022-10-20T02:41:23.761Z,72.50
2022-10-20T02:46:28.408Z,72.20
2022-10-20T02:51:31.677Z,71.80
2022-10-20T02:56:34.966Z,71.50
2022-10-20T03:01:39.654Z,71.20
2022-10-20T03:06:43.124Z,71.10
2022-10-20T03:11:46.437Z,71.10
2022-10-20T03:16:51.086Z,71.00
2022-10-20T03:21:54.405Z,70.90
2022-10-20T03:26:57.691Z,70.70
2022-10-20T03:32:02.321Z,70.60
2022-10-20T03:37:06.302Z,70.40
2022-10-20T03:42:09.622Z,70.50
2022-10-20T03:47:14.632Z,70.50
2022-10-20T03:52:17.913Z,70.40
2022-10-20T03:57:21.705Z,70.20
2022-10-20T04:02:32.934Z,70.20
2022-10-20T04:07:36.424Z,70.10
2022-10-20T04:12:39.749Z,70.20
2022-10-20T04:17:44.421Z,70.20
2022-10-20T04:22:48.089Z,70.20
2022-10-20T04:27:51.467Z,70.10
2022-10-20T04:32:56.085Z,70.20
2022-10-20T04:37:59.631Z,70.80
2022-10-20T04:43:02.944Z,69.80
2022-10-20T04:48:08.455Z,69.10
2022-10-20T04:53:11.707Z,69.30
2022-10-20T04:58:14.986Z,69.70
2022-10-20T05:03:20.040Z,70.40
2022-10-20T05:08:23.330Z,70.50
2022-10-20T05:13:26.585Z,70.70
2022-10-20T05:18:31.812Z,70.40
2022-10-20T05:23:35.173Z,70.40
2022-10-20T05:28:38.688Z,70.00
2022-10-20T05:33:45.526Z,69.80
2022-10-20T05:38:49.152Z,69.70
2022-10-20T05:43:54.172Z,69.80
2022-10-20T05:49:01.233Z,69.80
2022-10-20T05:54:05.522Z,69.80
2022-10-20T05:59:12.291Z,70.20
2022-10-20T06:04:19.063Z,70.70
2022-10-20T06:09:22.884Z,71.30
2022-10-20T06:14:27.081Z,71.80
2022-10-20T06:19:32.058Z,72.50
2022-10-20T06:24:35.562Z,72.60
2022-10-20T06:29:38.813Z,72.60
2022-10-20T06:34:43.694Z,72.90
2022-10-20T06:39:47.404Z,73.70
2022-10-20T06:44:51.275Z,74.50
2022-10-20T06:49:55.909Z,75.20
2022-10-20T06:54:59.176Z,75.40
2022-10-20T07:00:02.971Z,75.30
2022-10-20T07:05:08.877Z,75.00
2022-10-20T07:10:12.172Z,74.70
2022-10-20T07:15:15.884Z,74.60
2022-10-20T07:20:20.454Z,74.40
2022-10-20T07:25:23.969Z,74.40
2022-10-20T07:30:27.367Z,75.10
2022-10-20T07:35:32.685Z,73.90
2022-10-20T07:40:36.053Z,73.70
2022-10-20T07:45:39.402Z,73.60
2022-10-20T07:50:44.335Z,73.60
2022-10-20T07:55:47.931Z,73.40
2022-10-20T08:00:51.165Z,73.40
2022-10-20T08:05:56.191Z,73.40
2022-10-20T08:11:00.712Z,73.60
2022-10-20T08:21:24.567Z,73.50
2022-10-20T08:26:27.984Z,73.40
2022-10-20T08:31:31.576Z,73.40
2022-10-20T08:36:37.507Z,73.20
2022-10-20T08:42:07.663Z,73.10
2022-10-20T08:47:26.660Z,73.10
2022-10-20T08:52:34.369Z,73.30
2022-10-20T08:57:44.269Z,73.10
2022-10-20T09:02:57.701Z,73.10
2022-10-20T09:08:03.912Z,73.00
2022-10-20T09:13:18.507Z,72.60
2022-10-20T09:18:23.788Z,72.30
2022-10-20T09:23:42.473Z,72.00
2022-10-20T09:29:12.143Z,71.90
2022-10-20T09:34:24.818Z,71.80
2022-10-20T09:39:31.754Z,71.40
2022-10-20T09:44:47.833Z,71.80
2022-10-20T09:50:00.922Z,70.60
2022-10-20T09:55:22.341Z,70.40
2022-10-20T10:00:36.748Z,69.90
2022-10-20T10:05:41.163Z,70.00
2022-10-20T10:10:57.941Z,69.60
2022-10-20T10:16:04.074Z,68.90
2022-10-20T10:21:09.744Z,68.50
2022-10-20T10:26:43.829Z,68.50
2022-10-20T10:31:52.186Z,67.90
2022-10-20T10:36:55.756Z,68.10
2022-10-20T10:42:13.495Z,67.70
2022-10-20T10:47:34.226Z,66.40
2022-10-20T10:52:51.789Z,66.00
2022-10-20T10:58:07.345Z,65.90
2022-10-20T11:03:28.389Z,65.30
2022-10-20T11:08:45.610Z,63.20
2022-10-20T11:13:57.724Z,64.30
2022-10-20T11:19:20.408Z,63.90
2022-10-20T11:24:35.227Z,62.90
2022-10-20T11:29:46.611Z,62.60
2022-10-20T11:35:00.028Z,62.50
2022-10-20T11:40:15.042Z,59.30
2022-10-20T11:45:33.431Z,59.80
2022-10-20T11:50:37.481Z,60.30
2022-10-20T11:55:52.894Z,59.50
2022-10-20T12:07:07.574Z,58.70
2022-10-20T12:12:16.127Z,58.90
2022-10-20T12:17:29.048Z,58.80
2022-10-20T12:22:41.088Z,58.50
2022-10-20T12:27:44.385Z,58.60
2022-10-20T12:33:11.764Z,58.10
2022-10-20T12:38:19.342Z,56.80
2022-10-20T12:43:35.045Z,56.70
2022-10-20T12:48:45.799Z,55.60
2022-10-20T12:53:56.226Z,55.60
2022-10-20T12:59:24.352Z,54.10
2022-10-20T13:04:58.009Z,54.40
2022-10-20T13:10:03.535Z,55.00
2022-10-20T13:15:14.022Z,52.80
2022-10-20T13:20:26.690Z,53.80
2022-10-20T13:25:39.944Z,54.80
2022-10-20T13:31:00.441Z,54.80
2022-10-20T13:36:10.050Z,54.20
2022-10-20T13:41:21.108Z,53.20
2022-10-20T13:46:40.551Z,51.10
2022-10-20T13:51:48.643Z,52.20
2022-10-20T13:56:52.849Z,51.60
2022-10-20T14:01:58.350Z,51.50
2022-10-20T14:07:05.841Z,51.30
2022-10-20T14:12:13.880Z,51.10
2022-10-20T14:17:20.807Z,50.80
2022-10-20T14:22:26.437Z,50.40
2022-10-20T14:27:31.831Z,50.50
2022-10-20T14:32:40.260Z,49.80
2022-10-20T14:37:51.779Z,49.70
2022-10-20T14:43:00.518Z,49.30
2022-10-20T14:48:04.009Z,49.80
2022-10-20T14:53:32.933Z,50.00
2022-10-20T14:58:39.908Z,50.00
2022-10-20T15:03:44.696Z,49.50
2022-10-20T15:08:57.871Z,49.70
2022-10-20T15:14:01.454Z,49.60
2022-10-20T15:19:28.224Z,49.80
2022-10-20T15:24:33.566Z,49.80
2022-10-20T15:29:37.194Z,50.00
2022-10-20T15:34:41.027Z,50.00
2022-10-20T15:39:46.312Z,50.00
2022-10-20T15:44:50.071Z,50.00
2022-10-20T15:49:53.710Z,50.30
2022-10-20T15:54:59.329Z,50.20
2022-10-20T16:00:03.105Z,50.60
2022-10-20T16:05:07.331Z,50.40
2022-10-20T16:10:13.896Z,50.60
2022-10-20T16:15:17.912Z,50.70
2022-10-20T16:20:21.446Z,50.80
2022-10-20T16:25:26.326Z,51.10
2022-10-20T16:30:29.899Z,51.20
2022-10-20T16:35:33.441Z,51.60
2022-10-20T16:40:39.110Z,51.70
2022-10-20T16:45:42.757Z,51.70
2022-10-20T16:50:46.336Z,51.90
2022-10-20T16:55:55.748Z,52.00
2022-10-20T17:01:01.334Z,52.50
2022-10-20T17:06:07.094Z,52.70
2022-10-20T17:11:14.712Z,52.80
2022-10-20T17:16:21.500Z,52.70
2022-10-20T17:21:28.075Z,52.70
2022-10-20T17:26:34.114Z,52.80
2022-10-20T17:31:38.155Z,52.90
2022-10-20T17:36:42.037Z,53.00
2022-10-20T17:41:48.135Z,53.20
2022-10-20T17:46:51.775Z,53.40
2022-10-20T17:51:55.305Z,53.40
2022-10-20T17:57:00.253Z,53.80
2022-10-20T18:02:04.008Z,54.20
2022-10-20T18:07:07.588Z,54.30
2022-10-20T18:12:14.399Z,54.40
2022-10-20T18:17:17.975Z,54.60
2022-10-20T18:22:21.658Z,54.80
2022-10-20T18:27:26.823Z,55.00
2022-10-20T18:32:30.936Z,55.10
2022-10-20T18:37:35.130Z,55.70
2022-10-20T18:42:41.340Z,56.30
2022-10-20T18:47:46.134Z,56.50
2022-10-20T18:52:49.996Z,56.30
2022-10-20T18:57:55.090Z,56.30
2022-10-20T19:03:00.904Z,56.20
2022-10-20T19:08:06.600Z,56.20
2022-10-20T19:13:11.531Z,56.00
2022-10-20T19:18:15.498Z,55.80
2022-10-20T19:23:25.757Z,55.80
2022-10-20T19:28:32.115Z,55.90
2022-10-20T19:33:35.758Z,56.20
2022-10-20T19:38:39.309Z,56.60
2022-10-20T19:43:44.408Z,56.80
2022-10-20T19:48:49.083Z,56.80
2022-10-20T19:53:52.659Z,56.70
2022-10-20T19:58:57.895Z,56.60
2022-10-20T20:04:01.779Z,56.70
2022-10-20T20:09:07.898Z,56.60
2022-10-20T20:14:15.945Z,56.60
2022-10-20T20:19:19.543Z,56.60
2022-10-20T20:24:23.376Z,56.70
2022-10-20T20:29:28.520Z,56.60
2022-10-20T20:34:32.289Z,56.50
2022-10-20T20:39:35.867Z,56.80
2022-10-20T20:44:40.873Z,56.80
2022-10-20T20:49:44.532Z,57.10
2022-10-20T20:54:48.386Z,57.10
2022-10-20T21:00:02.273Z,57.00
2022-10-20T21:05:07.250Z,58.10
2022-10-20T21:10:11.155Z,57.20
2022-10-20T21:15:16.689Z,57.30
2022-10-20T21:20:20.554Z,57.50
2022-10-20T21:25:24.410Z,57.70
2022-10-20T21:30:29.345Z,57.90
2022-10-20T21:35:33.211Z,57.90
2022-10-20T21:40:36.750Z,57.80
2022-10-20T21:45:42.038Z,58.00
2022-10-20T21:50:45.953Z,58.00
2022-10-20T21:55:49.565Z,58.50
2022-10-20T22:00:56.130Z,58.90
2022-10-20T22:05:59.948Z,59.00
2022-10-20T22:11:05.433Z,59.00
2022-10-20T22:16:13.344Z,59.10
2022-10-20T22:21:19.111Z,59.00
2022-10-20T22:26:23.702Z,59.30
2022-10-20T22:31:29.322Z,59.50
2022-10-20T22:36:32.971Z,59.60
2022-10-20T22:41:36.924Z,59.50
2022-10-20T22:46:41.862Z,59.70
2022-10-20T22:51:45.413Z,59.90
2022-10-20T22:56:52.015Z,60.00
2022-10-20T23:01:56.764Z,60.00
2022-10-20T23:12:09.027Z,60.10
2022-10-20T23:17:14.330Z,60.30
2022-10-20T23:22:17.740Z,60.40
2022-10-20T23:27:21.137Z,60.40
2022-10-20T23:32:25.866Z,60.40
2022-10-20T23:37:29.170Z,60.50
2022-10-20T23:42:32.714Z,60.50
2022-10-20T23:47:37.662Z,60.70
2022-10-20T23:52:41.263Z,60.60
2022-10-20T23:57:44.538Z,60.70
